Time;durP1;ratioP1;P1;durP2;ratioP2;P2;SDS_P1;SDS_P2;PMS_P1;PMS_P2;Temp;Humidity;BMP_temperature;BMP_pressure;BME280_temperature;BME280_humidity;BME280_pressure;Samples;Min_cycle;Max_cycle;Signal;HPM_P1;HPM_P2
2021/01/30 00:08:39;;;;;;;0.45;0.17;;;8.30;62.10;;;;;;20766492;28;20307;-76
2021/01/30 00:18:40;;;;;;;0.32;0.30;;;8.30;62.20;;;;;;20819956;28;20151;-74
2021/01/30 00:28:41;;;;;;;0.80;0.17;;;8.30;62.20;;;;;;20820804;28;20284;-75
2021/01/30 00:38:43;;;;;;;0.22;0.22;;;8.20;62.10;;;;;;20800315;28;20048;-74
2021/01/30 00:48:43;;;;;;;0.05;0.05;;;8.30;62.20;;;;;;20829094;28;20041;-73
2021/01/30 00:58:44;;;;;;;0.30;0.23;;;8.20;62.20;;;;;;20821339;28;20035;-73
2021/01/30 01:08:46;;;;;;;0.20;0.20;;;8.20;62.20;;;;;;20820466;28;20295;-74
2021/01/30 01:18:48;;;;;;;0.32;0.17;;;8.30;62.20;;;;;;20825799;28;20041;-74
2021/01/30 01:28:51;;;;;;;0.03;0.03;;;8.20;62.20;;;;;;20857528;28;20399;-74
2021/01/30 01:38:52;;;;;;;0.40;0.40;;;8.30;62.30;;;;;;20810362;28;20063;-72
2021/01/30 01:49:02;;;;;;;0.15;0.15;;;8.20;62.10;;;;;;20821202;28;20132;-73
2021/01/30 01:59:09;;;;;;;0.47;0.20;;;8.20;62.20;;;;;;20825082;28;20041;-74
2021/01/30 02:09:14;;;;;;;0.30;0.22;;;8.20;62.20;;;;;;20823521;28;20057;-73
2021/01/30 02:19:52;;;;;;;0.38;0.20;;;8.20;62.20;;;;;;20818424;28;20033;-74
2021/01/30 02:30:38;;;;;;;0.10;0.10;;;8.10;62.10;;;;;;20854737;28;20052;-73
2021/01/30 02:40:40;;;;;;;0.20;0.20;;;8.20;62.10;;;;;;20850666;28;20096;-75
2021/01/30 02:50:45;;;;;;;0.08;0.08;;;8.10;62.00;;;;;;20815033;28;20069;-75
2021/01/30 03:00:47;;;;;;;0.50;0.30;;;8.10;61.90;;;;;;20827268;28;20039;-74
2021/01/30 03:11:15;;;;;;;0.20;0.20;;;8.10;61.90;;;;;;20831380;28;20025;-74
2021/01/30 03:21:16;;;;;;;0.95;0.40;;;8.10;61.90;;;;;;20842950;28;20037;-74
2021/01/30 03:31:18;;;;;;;0.47;0.30;;;8.10;61.80;;;;;;20804575;28;20044;-74
2021/01/30 03:41:19;;;;;;;0.13;0.13;;;8.10;61.80;;;;;;20851574;28;20033;-75
2021/01/30 03:51:22;;;;;;;1.08;0.28;;;8.10;61.70;;;;;;20836608;28;20033;-74
2021/01/30 04:01:32;;;;;;;1.77;0.65;;;8.10;61.60;;;;;;20846804;28;20029;-73
2021/01/30 04:11:33;;;;;;;0.80;0.45;;;8.10;61.50;;;;;;20828141;28;20056;-74
2021/01/30 04:21:34;;;;;;;0.67;0.30;;;8.10;61.40;;;;;;20828359;28;20051;-75
2021/01/30 04:31:34;;;;;;;0.40;0.30;;;8.10;61.30;;;;;;20823570;28;20296;-73
2021/01/30 04:41:56;;;;;;;0.45;0.40;;;8.00;61.20;;;;;;20817748;28;20045;-75
2021/01/30 04:52:08;;;;;;;0.20;0.20;;;8.00;61.20;;;;;;20829531;28;20033;-74
2021/01/30 05:02:29;;;;;;;2.25;0.50;;;8.00;61.20;;;;;;20829431;28;20033;-74
2021/01/30 05:12:44;;;;;;;0.45;0.30;;;8.00;61.20;;;;;;20846362;28;20072;-75
2021/01/30 05:22:45;;;;;;;0.57;0.40;;;8.10;61.40;;;;;;20815114;28;20136;-75
2021/01/30 05:33:19;;;;;;;1.17;0.77;;;8.30;61.40;;;;;;20825919;28;20495;-75
2021/01/30 05:43:23;;;;;;;1.15;0.43;;;8.50;60.90;;;;;;20828963;28;20033;-75
2021/01/30 05:53:25;;;;;;;1.00;0.55;;;8.60;60.20;;;;;;20862066;28;20029;-74
2021/01/30 06:03:27;;;;;;;2.15;1.20;;;8.70;59.60;;;;;;20838464;28;20103;-75
2021/01/30 06:13:28;;;;;;;1.00;0.52;;;8.80;59.10;;;;;;20853140;28;20025;-74
2021/01/30 06:23:29;;;;;;;2.60;0.98;;;8.70;58.50;;;;;;20823039;28;20128;-71
2021/01/30 06:33:34;;;;;;;0.77;0.52;;;8.60;58.50;;;;;;20865900;28;20037;-74
2021/01/30 06:43:47;;;;;;;0.77;0.50;;;8.50;58.70;;;;;;20858150;28;20052;-74
2021/01/30 06:53:49;;;;;;;0.95;0.68;;;8.40;58.90;;;;;;20836156;28;20049;-76
2021/01/30 07:04:25;;;;;;;0.55;0.55;;;8.30;59.10;;;;;;20844211;28;20495;-76
2021/01/30 07:14:34;;;;;;;1.25;1.13;;;8.20;59.50;;;;;;20859296;28;20735;-84
2021/01/30 07:24:54;;;;;;;0.30;0.25;;;8.20;59.70;;;;;;20664129;28;20052;-81
2021/01/30 07:35:01;;;;;;;0.95;0.40;;;8.30;60.00;;;;;;20724820;28;20060;-74
2021/01/30 07:45:24;;;;;;;0.30;0.20;;;8.20;60.20;;;;;;20877897;28;20029;-75
2021/01/30 07:55:25;;;;;;;1.30;0.50;;;8.20;60.40;;;;;;20809420;28;20033;-75
2021/01/30 08:05:45;;;;;;;0.33;0.30;;;8.20;60.50;;;;;;20820287;28;20037;-73
2021/01/30 08:16:10;;;;;;;0.17;0.17;;;8.20;60.60;;;;;;20856412;28;20627;-73
2021/01/30 08:26:22;;;;;;;0.32;0.17;;;8.20;60.70;;;;;;20838739;28;20415;-74
2021/01/30 08:36:42;;;;;;;1.00;0.60;;;8.20;60.90;;;;;;20847224;28;20538;-83
2021/01/30 08:46:43;;;;;;;0.40;0.30;;;8.20;60.90;;;;;;20836547;28;20558;-77
2021/01/30 08:56:48;;;;;;;0.25;0.25;;;8.20;60.80;;;;;;20867804;28;20049;-76
2021/01/30 09:06:55;;;;;;;2.17;0.75;;;8.30;61.30;;;;;;20859019;28;20044;-77
2021/01/30 09:16:56;;;;;;;0.90;0.57;;;8.50;61.30;;;;;;20872500;28;20387;-76
2021/01/30 09:27:06;;;;;;;0.45;0.30;;;8.70;60.80;;;;;;20857746;28;20056;-76
2021/01/30 09:37:06;;;;;;;0.82;0.60;;;8.80;60.00;;;;;;21234908;22;20034;-79
2021/01/30 09:47:12;;;;;;;0.63;0.50;;;8.70;59.70;;;;;;20792195;28;20125;-80
2021/01/30 09:57:20;;;;;;;2.63;0.65;;;8.60;59.70;;;;;;20798169;28;20026;-80
2021/01/30 10:07:26;;;;;;;0.25;0.20;;;8.50;59.90;;;;;;20816943;28;20052;-79
2021/01/30 10:17:30;;;;;;;1.55;0.40;;;8.50;60.10;;;;;;20786923;28;20022;-79
2021/01/30 10:27:31;;;;;;;0.30;0.30;;;8.40;60.40;;;;;;20815234;28;20095;-78
2021/01/30 10:37:35;;;;;;;0.20;0.20;;;8.40;60.60;;;;;;20822703;28;20479;-80
2021/01/30 10:47:37;;;;;;;0.75;0.30;;;8.40;60.80;;;;;;20846514;28;20041;-79
2021/01/30 10:57:37;;;;;;;0.32;0.32;;;8.40;61.00;;;;;;20773107;28;20112;-80
2021/01/30 11:07:44;;;;;;;0.25;0.20;;;8.30;61.00;;;;;;20814035;28;20072;-80
2021/01/30 11:17:46;;;;;;;0.70;0.25;;;8.30;61.10;;;;;;20798999;28;20112;-81
2021/01/30 11:27:47;;;;;;;0.20;0.20;;;8.30;61.20;;;;;;20775166;28;20073;-84
2021/01/30 11:37:51;;;;;;;0.25;0.25;;;8.40;61.30;;;;;;20838099;28;20462;-78
2021/01/30 11:47:55;;;;;;;0.20;0.20;;;8.40;61.30;;;;;;20813599;28;20152;-83
2021/01/30 11:57:55;;;;;;;0.30;0.30;;;8.30;61.30;;;;;;20785278;28;20040;-77
2021/01/30 12:07:59;;;;;;;0.30;0.30;;;8.40;61.40;;;;;;20799738;28;20034;-78
2021/01/30 12:17:59;;;;;;;0.65;0.47;;;8.40;61.40;;;;;;20835054;28;20482;-73
2021/01/30 12:28:01;;;;;;;4.00;0.73;;;8.40;61.40;;;;;;20795688;28;20037;-75
2021/01/30 12:38:02;;;;;;;0.10;0.10;;;8.30;61.40;;;;;;20842961;28;20135;-78
2021/01/30 12:48:03;;;;;;;1.45;0.25;;;8.40;61.50;;;;;;20803076;28;20099;-78
2021/01/30 12:58:27;;;;;;;0.15;0.15;;;8.30;61.40;;;;;;20883042;28;20360;-78
2021/01/30 13:08:27;;;;;;;0.13;0.13;;;8.30;61.40;;;;;;20874007;28;20091;-78
2021/01/30 13:18:28;;;;;;;0.22;0.20;;;8.30;61.40;;;;;;20840256;28;20037;-77
2021/01/30 13:28:31;;;;;;;0.00;0.00;;;8.30;61.50;;;;;;20854329;28;20785;-77
2021/01/30 13:38:32;;;;;;;0.30;0.20;;;8.30;61.50;;;;;;20857176;28;20049;-79
2021/01/30 13:48:33;;;;;;;0.03;0.03;;;8.30;61.50;;;;;;20786767;28;20038;-79
2021/01/30 13:58:34;;;;;;;0.40;0.40;;;8.30;61.60;;;;;;20820006;28;20499;-79
2021/01/30 14:08:35;;;;;;;0.50;0.47;;;8.30;61.70;;;;;;20817571;28;20038;-78
2021/01/30 14:18:38;;;;;;;0.45;0.45;;;8.30;62.00;;;;;;20860458;28;20069;-79
2021/01/30 14:28:41;;;;;;;0.08;0.08;;;8.40;62.00;;;;;;20860622;28;20103;-75
2021/01/30 14:38:46;;;;;;;0.10;0.10;;;8.60;61.70;;;;;;20854746;28;20029;-74
2021/01/30 14:48:46;;;;;;;0.17;0.17;;;8.80;61.20;;;;;;20848853;28;20033;-84
2021/01/30 14:58:48;;;;;;;0.15;0.15;;;8.90;60.60;;;;;;20832225;28;20033;-83
2021/01/30 15:08:49;;;;;;;0.20;0.20;;;8.90;60.40;;;;;;20816372;28;20045;-81
2021/01/30 15:18:51;;;;;;;0.13;0.13;;;8.80;59.50;;;;;;20845773;28;20048;-84
2021/01/30 15:28:54;;;;;;;0.40;0.13;;;8.60;59.50;;;;;;20842872;28;20509;-83
2021/01/30 15:38:56;;;;;;;0.38;0.25;;;8.60;60.50;;;;;;20864845;28;20044;-85
2021/01/30 15:48:57;;;;;;;0.10;0.10;;;8.50;60.10;;;;;;20847024;28;20137;-85
2021/01/30 15:59:01;;;;;;;0.38;0.20;;;8.40;60.40;;;;;;20847626;28;20112;-84
2021/01/30 16:09:03;;;;;;;0.15;0.15;;;8.50;60.80;;;;;;20839837;28;20639;-77
2021/01/30 16:19:06;;;;;;;0.50;0.35;;;8.40;60.50;;;;;;20806624;28;20033;-79
2021/01/30 16:29:07;;;;;;;0.00;0.00;;;8.40;60.70;;;;;;20819936;28;20037;-78
2021/01/30 16:39:07;;;;;;;0.20;0.15;;;8.40;60.80;;;;;;20841899;28;20128;-83
2021/01/30 16:49:08;;;;;;;0.35;0.30;;;8.50;61.00;;;;;;20814437;28;20442;-79
2021/01/30 16:59:08;;;;;;;0.13;0.10;;;8.40;60.90;;;;;;20854787;28;20038;-76
2021/01/30 17:09:09;;;;;;;0.38;0.35;;;8.40;60.90;;;;;;20805826;28;20292;-80
2021/01/30 17:19:10;;;;;;;0.65;0.28;;;8.40;61.00;;;;;;20789251;28;20025;-79
2021/01/30 17:29:12;;;;;;;0.32;0.20;;;8.40;61.10;;;;;;20837541;28;20048;-75
2021/01/30 17:39:13;;;;;;;0.57;0.20;;;8.30;61.20;;;;;;20839335;28;20451;-75
2021/01/30 17:49:13;;;;;;;1.10;0.50;;;8.30;61.20;;;;;;20855324;28;20061;-80
2021/01/30 17:59:15;;;;;;;0.20;0.10;;;8.30;61.50;;;;;;20853924;28;20429;-77
2021/01/30 18:09:16;;;;;;;0.25;0.15;;;8.40;61.30;;;;;;20705310;28;20075;-81
2021/01/30 18:19:17;;;;;;;0.90;0.75;;;8.30;61.30;;;;;;20551664;28;20025;-76
2021/01/30 18:29:17;;;;;;;0.28;0.13;;;8.20;61.30;;;;;;20644433;28;20025;-82
2021/01/30 18:39:36;;;;;;;0.75;0.30;;;8.20;61.40;;;;;;20634770;28;20021;-85
2021/01/30 18:49:37;;;;;;;1.30;0.45;;;8.20;61.50;;;;;;20570794;28;20292;-79
2021/01/30 18:59:39;;;;;;;1.23;0.40;;;8.20;61.50;;;;;;20587415;28;20038;-80
2021/01/30 19:09:39;;;;;;;0.80;0.28;;;8.10;61.50;;;;;;20572880;28;20049;-82
2021/01/30 19:19:41;;;;;;;0.55;0.30;;;8.10;61.40;;;;;;20620832;28;20518;-79
2021/01/30 19:29:45;;;;;;;0.30;0.30;;;8.10;61.40;;;;;;20667038;28;20099;-73
2021/01/30 19:39:46;;;;;;;0.85;0.50;;;8.10;61.30;;;;;;20867541;28;20043;-87
2021/01/30 19:49:47;;;;;;;1.58;0.60;;;8.10;61.20;;;;;;20873411;28;20049;-87
2021/01/30 19:59:48;;;;;;;0.95;0.63;;;8.10;61.30;;;;;;20886436;28;20102;-73
2021/01/30 20:09:54;;;;;;;0.63;0.57;;;8.10;61.30;;;;;;20874723;28;20052;-84
2021/01/30 20:19:58;;;;;;;1.10;0.45;;;8.00;61.20;;;;;;20840173;28;20059;-89
2021/01/30 20:30:00;;;;;;;1.02;0.60;;;8.10;61.10;;;;;;20879106;28;20048;-86
2021/01/30 20:40:01;;;;;;;0.60;0.57;;;8.00;60.90;;;;;;20839933;28;20049;-82
2021/01/30 20:50:04;;;;;;;0.98;0.55;;;8.00;60.80;;;;;;20841121;28;20346;-80
2021/01/30 21:00:09;;;;;;;0.32;0.32;;;8.00;60.70;;;;;;20848723;28;20045;-81
2021/01/30 21:10:11;;;;;;;0.93;0.80;;;8.00;60.50;;;;;;20845826;28;20198;-76
2021/01/30 21:20:14;;;;;;;1.88;1.63;;;8.00;60.40;;;;;;20799483;28;20084;-77
2021/01/30 21:30:16;;;;;;;1.52;0.70;;;8.00;60.20;;;;;;20786047;28;20040;-78
2021/01/30 21:40:18;;;;;;;2.33;0.45;;;7.90;60.10;;;;;;20762390;28;20058;-77
2021/01/30 21:50:20;;;;;;;4.22;0.98;;;7.90;60.60;;;;;;20784486;28;20052;-77
2021/01/30 22:00:22;;;;;;;0.40;0.40;;;7.90;59.70;;;;;;20749543;28;20030;-78
2021/01/30 22:10:23;;;;;;;0.40;0.40;;;7.90;59.60;;;;;;20765356;28;20037;-78
2021/01/30 22:20:23;;;;;;;1.05;0.73;;;7.90;59.40;;;;;;20759633;28;20025;-76
2021/01/30 22:30:27;;;;;;;0.52;0.40;;;7.90;59.20;;;;;;20746775;28;20049;-76
2021/01/30 22:40:28;;;;;;;0.50;0.47;;;7.90;59.00;;;;;;20798852;28;20042;-78
2021/01/30 22:50:28;;;;;;;0.50;0.50;;;7.80;58.80;;;;;;20800972;28;20045;-77
2021/01/30 23:00:29;;;;;;;0.80;0.50;;;7.80;58.70;;;;;;20866807;28;20033;-77
2021/01/30 23:10:31;;;;;;;0.20;0.20;;;7.80;58.60;;;;;;20870788;28;20338;-76
2021/01/30 23:20:31;;;;;;;0.30;0.20;;;7.80;58.50;;;;;;20826470;28;20450;-77
2021/01/30 23:31:00;;;;;;;1.15;0.70;;;7.80;58.30;;;;;;20876377;28;20064;-77
2021/01/30 23:41:02;;;;;;;2.05;0.40;;;7.80;58.20;;;;;;20862380;28;20166;-78
2021/01/30 23:51:08;;;;;;;4.47;0.65;;;7.80;58.10;;;;;;20861226;28;20041;-79
